sensor_id;sensor_type;location;lat;lon;timestamp;P1;durP1;ratioP1;P2;durP2;ratioP2
72493;SDS011;60520;49.182;-0.348;2023-07-13T00:01:31;1.75;;;0.70;;
72493;SDS011;60520;49.182;-0.348;2023-07-13T00:03:58;2.50;;;0.75;;
72493;SDS011;60520;49.182;-0.348;2023-07-13T00:06:26;1.73;;;0.88;;
72493;SDS011;60520;49.182;-0.348;2023-07-13T00:08:55;2.55;;;1.00;;
72493;SDS011;60520;49.182;-0.348;2023-07-13T00:11:22;2.25;;;0.90;;
72493;SDS011;60520;49.182;-0.348;2023-07-13T00:13:49;1.63;;;0.90;;
72493;SDS011;60520;49.182;-0.348;2023-07-13T00:16:16;1.83;;;0.90;;
72493;SDS011;60520;49.182;-0.348;2023-07-13T00:18:45;1.13;;;0.70;;
72493;SDS011;60520;49.182;-0.348;2023-07-13T00:21:12;2.50;;;0.90;;
72493;SDS011;60520;49.182;-0.348;2023-07-13T00:23:40;1.63;;;0.80;;
72493;SDS011;60520;49.182;-0.348;2023-07-13T00:26:08;2.15;;;1.00;;
72493;SDS011;60520;49.182;-0.348;2023-07-13T00:28:36;1.27;;;0.70;;
72493;SDS011;60520;49.182;-0.348;2023-07-13T00:31:04;0.88;;;0.65;;
72493;SDS011;60520;49.182;-0.348;2023-07-13T00:33:31;2.78;;;1.00;;
72493;SDS011;60520;49.182;-0.348;2023-07-13T00:36:00;1.85;;;0.70;;
72493;SDS011;60520;49.182;-0.348;2023-07-13T00:38:27;1.58;;;0.75;;
72493;SDS011;60520;49.182;-0.348;2023-07-13T00:40:54;1.80;;;0.65;;
72493;SDS011;60520;49.182;-0.348;2023-07-13T00:43:22;2.28;;;0.80;;
72493;SDS011;60520;49.182;-0.348;2023-07-13T00:48:44;1.38;;;0.90;;
72493;SDS011;60520;49.182;-0.348;2023-07-13T00:51:13;1.75;;;0.75;;
72493;SDS011;60520;49.182;-0.348;2023-07-13T00:53:41;1.63;;;0.82;;
72493;SDS011;60520;49.182;-0.348;2023-07-13T00:56:09;2.30;;;0.90;;
72493;SDS011;60520;49.182;-0.348;2023-07-13T00:58:36;1.42;;;0.60;;
72493;SDS011;60520;49.182;-0.348;2023-07-13T01:01:03;1.67;;;0.60;;
72493;SDS011;60520;49.182;-0.348;2023-07-13T01:03:30;2.38;;;1.00;;
72493;SDS011;60520;49.182;-0.348;2023-07-13T01:05:57;1.52;;;0.80;;
72493;SDS011;60520;49.182;-0.348;2023-07-13T01:08:26;2.28;;;0.98;;
72493;SDS011;60520;49.182;-0.348;2023-07-13T01:10:53;2.00;;;0.98;;
72493;SDS011;60520;49.182;-0.348;2023-07-13T01:13:21;2.10;;;0.80;;
72493;SDS011;60520;49.182;-0.348;2023-07-13T01:15:49;2.60;;;0.80;;
72493;SDS011;60520;49.182;-0.348;2023-07-13T01:18:18;1.67;;;0.70;;
72493;SDS011;60520;49.182;-0.348;2023-07-13T01:20:50;1.83;;;0.80;;
72493;SDS011;60520;49.182;-0.348;2023-07-13T01:23:17;1.98;;;0.80;;
72493;SDS011;60520;49.182;-0.348;2023-07-13T01:25:44;1.88;;;0.60;;
72493;SDS011;60520;49.182;-0.348;2023-07-13T01:28:12;2.45;;;1.00;;
72493;SDS011;60520;49.182;-0.348;2023-07-13T01:30:39;1.85;;;0.68;;
72493;SDS011;60520;49.182;-0.348;2023-07-13T01:33:10;1.92;;;0.90;;
72493;SDS011;60520;49.182;-0.348;2023-07-13T01:35:37;1.20;;;0.80;;
72493;SDS011;60520;49.182;-0.348;2023-07-13T01:38:06;1.85;;;0.70;;
72493;SDS011;60520;49.182;-0.348;2023-07-13T01:40:33;1.50;;;0.73;;
72493;SDS011;60520;49.182;-0.348;2023-07-13T01:43:01;1.48;;;0.80;;
72493;SDS011;60520;49.182;-0.348;2023-07-13T01:45:28;1.20;;;0.60;;
72493;SDS011;60520;49.182;-0.348;2023-07-13T01:47:55;2.70;;;0.90;;
72493;SDS011;60520;49.182;-0.348;2023-07-13T01:50:23;1.98;;;1.08;;
72493;SDS011;60520;49.182;-0.348;2023-07-13T01:52:51;1.15;;;0.65;;
72493;SDS011;60520;49.182;-0.348;2023-07-13T01:55:19;1.05;;;0.65;;
72493;SDS011;60520;49.182;-0.348;2023-07-13T01:57:47;3.40;;;0.98;;
72493;SDS011;60520;49.182;-0.348;2023-07-13T02:00:14;1.63;;;0.93;;
72493;SDS011;60520;49.182;-0.348;2023-07-13T02:02:42;1.77;;;0.75;;
72493;SDS011;60520;49.182;-0.348;2023-07-13T02:05:09;3.05;;;0.90;;
72493;SDS011;60520;49.182;-0.348;2023-07-13T02:07:36;1.15;;;0.50;;
72493;SDS011;60520;49.182;-0.348;2023-07-13T02:10:03;1.83;;;0.85;;
72493;SDS011;60520;49.182;-0.348;2023-07-13T02:12:32;1.35;;;0.82;;
72493;SDS011;60520;49.182;-0.348;2023-07-13T02:14:59;2.08;;;0.90;;
72493;SDS011;60520;49.182;-0.348;2023-07-13T02:17:26;3.63;;;1.00;;
72493;SDS011;60520;49.182;-0.348;2023-07-13T02:19:54;2.38;;;0.95;;
72493;SDS011;60520;49.182;-0.348;2023-07-13T02:22:21;2.05;;;0.98;;
72493;SDS011;60520;49.182;-0.348;2023-07-13T02:24:48;2.13;;;0.90;;
72493;SDS011;60520;49.182;-0.348;2023-07-13T02:27:15;2.08;;;0.80;;
72493;SDS011;60520;49.182;-0.348;2023-07-13T02:29:44;2.00;;;0.80;;
72493;SDS011;60520;49.182;-0.348;2023-07-13T02:32:11;1.65;;;0.85;;
72493;SDS011;60520;49.182;-0.348;2023-07-13T02:34:38;1.98;;;0.90;;
72493;SDS011;60520;49.182;-0.348;2023-07-13T02:37:05;1.73;;;0.80;;
72493;SDS011;60520;49.182;-0.348;2023-07-13T02:39:32;2.20;;;0.80;;
72493;SDS011;60520;49.182;-0.348;2023-07-13T02:41:59;1.95;;;0.80;;
72493;SDS011;60520;49.182;-0.348;2023-07-13T02:44:26;2.22;;;0.90;;
72493;SDS011;60520;49.182;-0.348;2023-07-13T02:46:55;2.35;;;0.88;;
72493;SDS011;60520;49.182;-0.348;2023-07-13T02:49:22;3.50;;;0.88;;
72493;SDS011;60520;49.182;-0.348;2023-07-13T02:51:49;1.77;;;0.80;;
72493;SDS011;60520;49.182;-0.348;2023-07-13T02:54:16;1.55;;;0.80;;
72493;SDS011;60520;49.182;-0.348;2023-07-13T02:56:43;2.85;;;0.80;;
72493;SDS011;60520;49.182;-0.348;2023-07-13T02:59:10;1.98;;;0.70;;
72493;SDS011;60520;49.182;-0.348;2023-07-13T03:01:38;2.08;;;0.70;;
72493;SDS011;60520;49.182;-0.348;2023-07-13T03:04:07;1.50;;;0.88;;
72493;SDS011;60520;49.182;-0.348;2023-07-13T03:06:34;1.27;;;0.70;;
72493;SDS011;60520;49.182;-0.348;2023-07-13T03:09:01;2.10;;;0.77;;
72493;SDS011;60520;49.182;-0.348;2023-07-13T03:11:28;3.00;;;0.90;;
72493;SDS011;60520;49.182;-0.348;2023-07-13T03:13:57;1.13;;;0.70;;
72493;SDS011;60520;49.182;-0.348;2023-07-13T03:16:24;1.90;;;0.75;;
72493;SDS011;60520;49.182;-0.348;2023-07-13T03:18:52;2.40;;;0.77;;
72493;SDS011;60520;49.182;-0.348;2023-07-13T03:21:20;1.80;;;0.90;;
72493;SDS011;60520;49.182;-0.348;2023-07-13T03:23:47;1.75;;;0.82;;
72493;SDS011;60520;49.182;-0.348;2023-07-13T03:26:15;1.52;;;0.80;;
72493;SDS011;60520;49.182;-0.348;2023-07-13T03:28:43;1.88;;;0.88;;
72493;SDS011;60520;49.182;-0.348;2023-07-13T03:31:11;2.35;;;0.70;;
72493;SDS011;60520;49.182;-0.348;2023-07-13T03:33:38;1.52;;;0.70;;
72493;SDS011;60520;49.182;-0.348;2023-07-13T03:36:06;2.97;;;0.85;;
72493;SDS011;60520;49.182;-0.348;2023-07-13T03:38:35;2.70;;;0.85;;
72493;SDS011;60520;49.182;-0.348;2023-07-13T03:41:02;0.95;;;0.80;;
72493;SDS011;60520;49.182;-0.348;2023-07-13T03:43:30;2.03;;;0.80;;
72493;SDS011;60520;49.182;-0.348;2023-07-13T03:45:57;2.15;;;0.75;;
72493;SDS011;60520;49.182;-0.348;2023-07-13T03:48:24;3.22;;;0.93;;
72493;SDS011;60520;49.182;-0.348;2023-07-13T03:50:51;2.72;;;0.93;;
72493;SDS011;60520;49.182;-0.348;2023-07-13T03:53:18;2.70;;;0.88;;
72493;SDS011;60520;49.182;-0.348;2023-07-13T03:55:46;1.73;;;0.88;;
72493;SDS011;60520;49.182;-0.348;2023-07-13T03:58:24;1.90;;;0.80;;
72493;SDS011;60520;49.182;-0.348;2023-07-13T04:00:51;1.58;;;0.90;;
72493;SDS011;60520;49.182;-0.348;2023-07-13T04:03:18;2.28;;;0.80;;
72493;SDS011;60520;49.182;-0.348;2023-07-13T04:05:45;1.67;;;0.82;;
72493;SDS011;60520;49.182;-0.348;2023-07-13T04:08:13;1.75;;;0.90;;
72493;SDS011;60520;49.182;-0.348;2023-07-13T04:10:40;1.15;;;0.70;;
72493;SDS011;60520;49.182;-0.348;2023-07-13T04:13:08;1.60;;;0.68;;
72493;SDS011;60520;49.182;-0.348;2023-07-13T04:15:35;1.77;;;0.85;;
72493;SDS011;60520;49.182;-0.348;2023-07-13T04:18:03;1.60;;;0.90;;
72493;SDS011;60520;49.182;-0.348;2023-07-13T04:20:30;1.33;;;0.70;;
72493;SDS011;60520;49.182;-0.348;2023-07-13T04:22:57;1.73;;;0.80;;
72493;SDS011;60520;49.182;-0.348;2023-07-13T04:25:24;2.08;;;0.88;;
72493;SDS011;60520;49.182;-0.348;2023-07-13T04:27:52;1.45;;;0.77;;
72493;SDS011;60520;49.182;-0.348;2023-07-13T04:30:20;1.45;;;0.73;;
72493;SDS011;60520;49.182;-0.348;2023-07-13T04:32:48;1.25;;;0.70;;
72493;SDS011;60520;49.182;-0.348;2023-07-13T04:35:15;2.30;;;1.00;;
72493;SDS011;60520;49.182;-0.348;2023-07-13T04:37:42;1.83;;;0.90;;
72493;SDS011;60520;49.182;-0.348;2023-07-13T04:40:10;1.98;;;0.90;;
72493;SDS011;60520;49.182;-0.348;2023-07-13T04:42:37;2.45;;;0.80;;
72493;SDS011;60520;49.182;-0.348;2023-07-13T04:45:05;2.00;;;0.90;;
72493;SDS011;60520;49.182;-0.348;2023-07-13T04:47:34;2.30;;;0.70;;
72493;SDS011;60520;49.182;-0.348;2023-07-13T04:50:01;1.50;;;0.70;;
72493;SDS011;60520;49.182;-0.348;2023-07-13T04:52:28;1.98;;;0.90;;
72493;SDS011;60520;49.182;-0.348;2023-07-13T04:54:55;1.30;;;0.75;;
72493;SDS011;60520;49.182;-0.348;2023-07-13T04:57:22;1.77;;;0.85;;
72493;SDS011;60520;49.182;-0.348;2023-07-13T04:59:49;1.10;;;0.60;;
72493;SDS011;60520;49.182;-0.348;2023-07-13T05:02:16;1.25;;;0.73;;
72493;SDS011;60520;49.182;-0.348;2023-07-13T05:04:47;1.77;;;0.70;;
72493;SDS011;60520;49.182;-0.348;2023-07-13T05:07:14;1.38;;;0.70;;
72493;SDS011;60520;49.182;-0.348;2023-07-13T05:09:41;1.52;;;0.73;;
72493;SDS011;60520;49.182;-0.348;2023-07-13T05:12:08;1.95;;;0.90;;
72493;SDS011;60520;49.182;-0.348;2023-07-13T05:14:36;0.90;;;0.52;;
72493;SDS011;60520;49.182;-0.348;2023-07-13T05:17:03;1.48;;;0.80;;
72493;SDS011;60520;49.182;-0.348;2023-07-13T05:19:30;1.73;;;0.75;;
72493;SDS011;60520;49.182;-0.348;2023-07-13T05:21:58;0.82;;;0.60;;
72493;SDS011;60520;49.182;-0.348;2023-07-13T05:24:25;0.80;;;0.60;;
72493;SDS011;60520;49.182;-0.348;2023-07-13T05:26:53;1.08;;;0.60;;
72493;SDS011;60520;49.182;-0.348;2023-07-13T05:29:20;1.15;;;0.50;;
72493;SDS011;60520;49.182;-0.348;2023-07-13T05:31:47;0.80;;;0.50;;
72493;SDS011;60520;49.182;-0.348;2023-07-13T05:34:14;1.08;;;0.60;;
72493;SDS011;60520;49.182;-0.348;2023-07-13T05:36:41;0.75;;;0.50;;
72493;SDS011;60520;49.182;-0.348;2023-07-13T05:39:10;0.82;;;0.40;;
72493;SDS011;60520;49.182;-0.348;2023-07-13T05:41:37;0.60;;;0.50;;
72493;SDS011;60520;49.182;-0.348;2023-07-13T05:44:04;0.70;;;0.40;;
72493;SDS011;60520;49.182;-0.348;2023-07-13T05:46:31;0.47;;;0.45;;
72493;SDS011;60520;49.182;-0.348;2023-07-13T05:48:59;1.60;;;0.50;;
72493;SDS011;60520;49.182;-0.348;2023-07-13T05:51:26;0.90;;;0.50;;
72493;SDS011;60520;49.182;-0.348;2023-07-13T05:53:53;0.52;;;0.38;;
72493;SDS011;60520;49.182;-0.348;2023-07-13T05:56:21;1.02;;;0.47;;
72493;SDS011;60520;49.182;-0.348;2023-07-13T05:58:50;0.55;;;0.40;;
72493;SDS011;60520;49.182;-0.348;2023-07-13T06:01:17;0.45;;;0.40;;
72493;SDS011;60520;49.182;-0.348;2023-07-13T06:03:45;0.50;;;0.40;;
72493;SDS011;60520;49.182;-0.348;2023-07-13T06:06:13;0.93;;;0.50;;
72493;SDS011;60520;49.182;-0.348;2023-07-13T06:08:40;0.70;;;0.40;;
72493;SDS011;60520;49.182;-0.348;2023-07-13T06:11:09;1.15;;;0.57;;
72493;SDS011;60520;49.182;-0.348;2023-07-13T06:13:38;1.27;;;0.40;;
72493;SDS011;60520;49.182;-0.348;2023-07-13T06:16:05;1.77;;;0.55;;
72493;SDS011;60520;49.182;-0.348;2023-07-13T06:18:33;1.15;;;0.50;;
72493;SDS011;60520;49.182;-0.348;2023-07-13T06:21:00;0.52;;;0.40;;
72493;SDS011;60520;49.182;-0.348;2023-07-13T06:23:28;1.13;;;0.50;;
72493;SDS011;60520;49.182;-0.348;2023-07-13T06:25:55;1.95;;;0.50;;
72493;SDS011;60520;49.182;-0.348;2023-07-13T06:28:22;0.98;;;0.50;;
72493;SDS011;60520;49.182;-0.348;2023-07-13T06:30:50;0.50;;;0.40;;
72493;SDS011;60520;49.182;-0.348;2023-07-13T06:33:17;1.05;;;0.47;;
72493;SDS011;60520;49.182;-0.348;2023-07-13T06:35:45;1.38;;;0.40;;
72493;SDS011;60520;49.182;-0.348;2023-07-13T06:38:12;0.90;;;0.43;;
72493;SDS011;60520;49.182;-0.348;2023-07-13T06:40:39;1.40;;;0.52;;
72493;SDS011;60520;49.182;-0.348;2023-07-13T06:43:06;1.20;;;0.60;;
72493;SDS011;60520;49.182;-0.348;2023-07-13T06:45:35;1.48;;;0.55;;
72493;SDS011;60520;49.182;-0.348;2023-07-13T06:48:03;0.93;;;0.50;;
72493;SDS011;60520;49.182;-0.348;2023-07-13T06:50:30;1.13;;;0.60;;
72493;SDS011;60520;49.182;-0.348;2023-07-13T06:52:58;0.73;;;0.60;;
72493;SDS011;60520;49.182;-0.348;2023-07-13T06:55:25;0.77;;;0.45;;
72493;SDS011;60520;49.182;-0.348;2023-07-13T06:57:52;3.10;;;0.50;;
72493;SDS011;60520;49.182;-0.348;2023-07-13T07:00:19;3.13;;;0.50;;
72493;SDS011;60520;49.182;-0.348;2023-07-13T07:02:47;0.70;;;0.40;;
72493;SDS011;60520;49.182;-0.348;2023-07-13T07:05:15;1.05;;;0.55;;
72493;SDS011;60520;49.182;-0.348;2023-07-13T07:07:42;1.20;;;0.60;;
72493;SDS011;60520;49.182;-0.348;2023-07-13T07:10:09;1.13;;;0.60;;
72493;SDS011;60520;49.182;-0.348;2023-07-13T07:12:36;1.00;;;0.50;;
72493;SDS011;60520;49.182;-0.348;2023-07-13T07:15:04;2.30;;;0.80;;
72493;SDS011;60520;49.182;-0.348;2023-07-13T07:17:31;1.35;;;0.50;;
72493;SDS011;60520;49.182;-0.348;2023-07-13T07:19:58;0.93;;;0.45;;
72493;SDS011;60520;49.182;-0.348;2023-07-13T07:22:27;1.05;;;0.50;;
72493;SDS011;60520;49.182;-0.348;2023-07-13T07:24:55;2.92;;;0.50;;
72493;SDS011;60520;49.182;-0.348;2023-07-13T07:27:22;1.65;;;0.60;;
72493;SDS011;60520;49.182;-0.348;2023-07-13T07:29:49;0.47;;;0.47;;
72493;SDS011;60520;49.182;-0.348;2023-07-13T07:32:16;0.80;;;0.40;;
72493;SDS011;60520;49.182;-0.348;2023-07-13T07:34:44;1.20;;;0.50;;
72493;SDS011;60520;49.182;-0.348;2023-07-13T07:37:11;1.42;;;0.65;;
72493;SDS011;60520;49.182;-0.348;2023-07-13T07:39:40;0.60;;;0.38;;
72493;SDS011;60520;49.182;-0.348;2023-07-13T07:42:07;0.88;;;0.52;;
72493;SDS011;60520;49.182;-0.348;2023-07-13T07:44:34;1.17;;;0.50;;
72493;SDS011;60520;49.182;-0.348;2023-07-13T07:47:01;0.95;;;0.50;;
72493;SDS011;60520;49.182;-0.348;2023-07-13T07:49:29;2.58;;;0.50;;
72493;SDS011;60520;49.182;-0.348;2023-07-13T07:51:56;0.70;;;0.57;;
72493;SDS011;60520;49.182;-0.348;2023-07-13T07:54:23;0.70;;;0.40;;
72493;SDS011;60520;49.182;-0.348;2023-07-13T07:56:51;0.50;;;0.50;;
72493;SDS011;60520;49.182;-0.348;2023-07-13T07:59:19;1.40;;;0.50;;
72493;SDS011;60520;49.182;-0.348;2023-07-13T08:01:46;1.20;;;0.50;;
72493;SDS011;60520;49.182;-0.348;2023-07-13T08:04:15;2.40;;;0.47;;
72493;SDS011;60520;49.182;-0.348;2023-07-13T08:06:42;0.57;;;0.35;;
72493;SDS011;60520;49.182;-0.348;2023-07-13T08:09:09;1.67;;;0.73;;
72493;SDS011;60520;49.182;-0.348;2023-07-13T08:11:36;2.38;;;1.00;;
72493;SDS011;60520;49.182;-0.348;2023-07-13T08:14:06;2.53;;;1.00;;
72493;SDS011;60520;49.182;-0.348;2023-07-13T08:16:34;6.28;;;0.90;;
72493;SDS011;60520;49.182;-0.348;2023-07-13T08:19:01;1.60;;;0.70;;
72493;SDS011;60520;49.182;-0.348;2023-07-13T08:21:29;3.30;;;0.70;;
72493;SDS011;60520;49.182;-0.348;2023-07-13T08:23:56;2.45;;;0.85;;
72493;SDS011;60520;49.182;-0.348;2023-07-13T08:26:23;4.43;;;1.13;;
72493;SDS011;60520;49.182;-0.348;2023-07-13T08:28:50;1.55;;;0.70;;
72493;SDS011;60520;49.182;-0.348;2023-07-13T08:31:19;2.53;;;0.80;;
72493;SDS011;60520;49.182;-0.348;2023-07-13T08:33:46;2.83;;;0.98;;
72493;SDS011;60520;49.182;-0.348;2023-07-13T08:36:13;2.15;;;0.85;;
72493;SDS011;60520;49.182;-0.348;2023-07-13T08:38:40;1.63;;;0.70;;
72493;SDS011;60520;49.182;-0.348;2023-07-13T08:41:11;1.85;;;0.70;;
72493;SDS011;60520;49.182;-0.348;2023-07-13T08:43:38;3.33;;;0.98;;
72493;SDS011;60520;49.182;-0.348;2023-07-13T08:46:07;6.93;;;1.05;;
72493;SDS011;60520;49.182;-0.348;2023-07-13T08:48:38;4.95;;;1.20;;
72493;SDS011;60520;49.182;-0.348;2023-07-13T08:51:09;3.30;;;1.13;;
72493;SDS011;60520;49.182;-0.348;2023-07-13T08:53:38;3.88;;;0.90;;
72493;SDS011;60520;49.182;-0.348;2023-07-13T08:56:09;1.90;;;0.90;;
72493;SDS011;60520;49.182;-0.348;2023-07-13T08:58:38;1.63;;;0.90;;
72493;SDS011;60520;49.182;-0.348;2023-07-13T09:01:15;9.55;;;0.93;;
72493;SDS011;60520;49.182;-0.348;2023-07-13T09:03:49;4.03;;;1.00;;
72493;SDS011;60520;49.182;-0.348;2023-07-13T09:06:18;2.15;;;0.90;;
72493;SDS011;60520;49.182;-0.348;2023-07-13T09:08:48;1.92;;;0.80;;
72493;SDS011;60520;49.182;-0.348;2023-07-13T09:11:23;2.72;;;1.00;;
72493;SDS011;60520;49.182;-0.348;2023-07-13T09:13:57;4.25;;;0.90;;
72493;SDS011;60520;49.182;-0.348;2023-07-13T09:16:27;2.28;;;0.95;;
72493;SDS011;60520;49.182;-0.348;2023-07-13T09:18:56;2.60;;;0.82;;
72493;SDS011;60520;49.182;-0.348;2023-07-13T09:21:28;5.18;;;0.90;;
72493;SDS011;60520;49.182;-0.348;2023-07-13T09:23:59;1.88;;;0.80;;
72493;SDS011;60520;49.182;-0.348;2023-07-13T09:26:27;1.63;;;0.80;;
72493;SDS011;60520;49.182;-0.348;2023-07-13T09:28:55;1.38;;;0.52;;
72493;SDS011;60520;49.182;-0.348;2023-07-13T09:31:24;2.08;;;0.88;;
72493;SDS011;60520;49.182;-0.348;2023-07-13T09:33:53;2.40;;;0.90;;
72493;SDS011;60520;49.182;-0.348;2023-07-13T09:36:22;2.60;;;0.93;;
72493;SDS011;60520;49.182;-0.348;2023-07-13T09:38:53;3.13;;;0.98;;
72493;SDS011;60520;49.182;-0.348;2023-07-13T09:41:23;3.00;;;0.90;;
72493;SDS011;60520;49.182;-0.348;2023-07-13T09:44:06;3.33;;;0.73;;
72493;SDS011;60520;49.182;-0.348;2023-07-13T09:46:36;2.47;;;0.85;;
72493;SDS011;60520;49.182;-0.348;2023-07-13T09:49:03;4.32;;;0.88;;
72493;SDS011;60520;49.182;-0.348;2023-07-13T09:51:31;2.30;;;0.90;;
72493;SDS011;60520;49.182;-0.348;2023-07-13T09:53:59;1.88;;;0.88;;
72493;SDS011;60520;49.182;-0.348;2023-07-13T09:56:27;2.85;;;1.02;;
72493;SDS011;60520;49.182;-0.348;2023-07-13T09:58:55;2.80;;;0.90;;
72493;SDS011;60520;49.182;-0.348;2023-07-13T10:01:33;2.20;;;1.10;;
72493;SDS011;60520;49.182;-0.348;2023-07-13T10:04:01;2.25;;;0.93;;
72493;SDS011;60520;49.182;-0.348;2023-07-13T10:06:28;2.67;;;0.90;;
72493;SDS011;60520;49.182;-0.348;2023-07-13T10:08:57;1.75;;;0.90;;
72493;SDS011;60520;49.182;-0.348;2023-07-13T10:11:26;5.47;;;1.05;;
72493;SDS011;60520;49.182;-0.348;2023-07-13T10:13:55;3.03;;;0.90;;
72493;SDS011;60520;49.182;-0.348;2023-07-13T10:16:22;4.70;;;1.23;;
72493;SDS011;60520;49.182;-0.348;2023-07-13T10:18:51;2.22;;;0.90;;
72493;SDS011;60520;49.182;-0.348;2023-07-13T10:21:21;5.55;;;1.27;;
72493;SDS011;60520;49.182;-0.348;2023-07-13T10:23:49;2.47;;;1.00;;
72493;SDS011;60520;49.182;-0.348;2023-07-13T10:26:19;3.45;;;1.02;;
72493;SDS011;60520;49.182;-0.348;2023-07-13T10:28:49;5.20;;;1.00;;
72493;SDS011;60520;49.182;-0.348;2023-07-13T10:31:18;2.40;;;0.80;;
72493;SDS011;60520;49.182;-0.348;2023-07-13T10:33:46;5.00;;;1.10;;
72493;SDS011;60520;49.182;-0.348;2023-07-13T10:36:16;3.53;;;0.98;;
72493;SDS011;60520;49.182;-0.348;2023-07-13T10:38:44;3.53;;;1.10;;
72493;SDS011;60520;49.182;-0.348;2023-07-13T10:41:15;2.80;;;0.95;;
72493;SDS011;60520;49.182;-0.348;2023-07-13T10:43:44;1.75;;;0.73;;
72493;SDS011;60520;49.182;-0.348;2023-07-13T10:46:12;1.58;;;0.70;;
72493;SDS011;60520;49.182;-0.348;2023-07-13T10:48:40;2.78;;;0.90;;
72493;SDS011;60520;49.182;-0.348;2023-07-13T10:51:08;1.52;;;0.70;;
72493;SDS011;60520;49.182;-0.348;2023-07-13T10:53:36;2.08;;;0.80;;
72493;SDS011;60520;49.182;-0.348;2023-07-13T10:56:05;0.80;;;0.60;;
72493;SDS011;60520;49.182;-0.348;2023-07-13T10:58:34;3.78;;;0.60;;
72493;SDS011;60520;49.182;-0.348;2023-07-13T11:01:07;1.85;;;0.70;;
72493;SDS011;60520;49.182;-0.348;2023-07-13T11:03:35;2.03;;;0.70;;
72493;SDS011;60520;49.182;-0.348;2023-07-13T11:06:04;1.38;;;0.63;;
72493;SDS011;60520;49.182;-0.348;2023-07-13T11:08:34;1.27;;;0.70;;
72493;SDS011;60520;49.182;-0.348;2023-07-13T11:11:03;1.15;;;0.60;;
72493;SDS011;60520;49.182;-0.348;2023-07-13T11:13:57;1.45;;;0.55;;
72493;SDS011;60520;49.182;-0.348;2023-07-13T11:16:36;0.52;;;0.40;;
72493;SDS011;60520;49.182;-0.348;2023-07-13T11:19:24;0.95;;;0.50;;
72493;SDS011;60520;49.182;-0.348;2023-07-13T11:22:02;0.50;;;0.47;;
72493;SDS011;60520;49.182;-0.348;2023-07-13T11:24:33;0.82;;;0.50;;
72493;SDS011;60520;49.182;-0.348;2023-07-13T11:27:19;2.28;;;0.50;;
72493;SDS011;60520;49.182;-0.348;2023-07-13T11:29:48;1.25;;;0.57;;
72493;SDS011;60520;49.182;-0.348;2023-07-13T11:32:23;1.42;;;0.60;;
72493;SDS011;60520;49.182;-0.348;2023-07-13T11:34:52;1.38;;;0.50;;
72493;SDS011;60520;49.182;-0.348;2023-07-13T11:37:20;0.57;;;0.40;;
72493;SDS011;60520;49.182;-0.348;2023-07-13T11:39:48;0.70;;;0.50;;
72493;SDS011;60520;49.182;-0.348;2023-07-13T11:42:18;1.15;;;0.50;;
72493;SDS011;60520;49.182;-0.348;2023-07-13T11:44:47;1.98;;;0.70;;
72493;SDS011;60520;49.182;-0.348;2023-07-13T11:47:16;1.63;;;0.40;;
72493;SDS011;60520;49.182;-0.348;2023-07-13T11:49:48;1.65;;;0.60;;
72493;SDS011;60520;49.182;-0.348;2023-07-13T11:52:17;0.90;;;0.50;;
72493;SDS011;60520;49.182;-0.348;2023-07-13T11:54:46;1.15;;;0.60;;
72493;SDS011;60520;49.182;-0.348;2023-07-13T11:57:19;0.60;;;0.50;;
72493;SDS011;60520;49.182;-0.348;2023-07-13T11:59:49;1.73;;;0.63;;
72493;SDS011;60520;49.182;-0.348;2023-07-13T12:02:17;1.77;;;0.90;;
72493;SDS011;60520;49.182;-0.348;2023-07-13T12:04:49;4.78;;;1.05;;
72493;SDS011;60520;49.182;-0.348;2023-07-13T12:07:18;3.47;;;1.20;;
72493;SDS011;60520;49.182;-0.348;2023-07-13T12:09:45;4.30;;;1.20;;
72493;SDS011;60520;49.182;-0.348;2023-07-13T12:12:17;4.00;;;1.23;;
72493;SDS011;60520;49.182;-0.348;2023-07-13T12:14:44;2.92;;;1.13;;
72493;SDS011;60520;49.182;-0.348;2023-07-13T12:17:16;5.22;;;1.50;;
72493;SDS011;60520;49.182;-0.348;2023-07-13T12:19:43;3.97;;;1.30;;
72493;SDS011;60520;49.182;-0.348;2023-07-13T12:22:13;3.20;;;1.05;;
72493;SDS011;60520;49.182;-0.348;2023-07-13T12:24:41;5.07;;;1.67;;
72493;SDS011;60520;49.182;-0.348;2023-07-13T12:27:13;5.88;;;1.48;;
72493;SDS011;60520;49.182;-0.348;2023-07-13T12:29:48;9.32;;;1.63;;
72493;SDS011;60520;49.182;-0.348;2023-07-13T12:32:16;5.70;;;1.30;;
72493;SDS011;60520;49.182;-0.348;2023-07-13T12:34:50;4.38;;;1.17;;
72493;SDS011;60520;49.182;-0.348;2023-07-13T12:37:19;4.05;;;1.20;;
72493;SDS011;60520;49.182;-0.348;2023-07-13T12:39:47;4.10;;;1.08;;
72493;SDS011;60520;49.182;-0.348;2023-07-13T12:42:18;3.83;;;1.05;;
72493;SDS011;60520;49.182;-0.348;2023-07-13T12:44:48;3.92;;;1.30;;
72493;SDS011;60520;49.182;-0.348;2023-07-13T12:47:15;3.00;;;1.30;;
72493;SDS011;60520;49.182;-0.348;2023-07-13T12:49:43;5.00;;;1.20;;
72493;SDS011;60520;49.182;-0.348;2023-07-13T12:52:15;3.67;;;1.27;;
72493;SDS011;60520;49.182;-0.348;2023-07-13T12:54:53;4.90;;;1.45;;
72493;SDS011;60520;49.182;-0.348;2023-07-13T12:57:22;3.90;;;1.23;;
72493;SDS011;60520;49.182;-0.348;2023-07-13T12:59:51;3.17;;;1.25;;
72493;SDS011;60520;49.182;-0.348;2023-07-13T13:02:21;3.58;;;1.20;;
72493;SDS011;60520;49.182;-0.348;2023-07-13T13:04:49;5.10;;;1.10;;
72493;SDS011;60520;49.182;-0.348;2023-07-13T13:07:16;4.55;;;1.23;;
72493;SDS011;60520;49.182;-0.348;2023-07-13T13:09:45;3.72;;;1.60;;
72493;SDS011;60520;49.182;-0.348;2023-07-13T13:12:14;8.70;;;1.77;;
72493;SDS011;60520;49.182;-0.348;2023-07-13T13:14:42;5.22;;;1.50;;
72493;SDS011;60520;49.182;-0.348;2023-07-13T13:17:14;3.53;;;1.30;;
72493;SDS011;60520;49.182;-0.348;2023-07-13T13:19:44;3.33;;;1.17;;
72493;SDS011;60520;49.182;-0.348;2023-07-13T13:22:11;3.53;;;1.55;;
72493;SDS011;60520;49.182;-0.348;2023-07-13T13:24:38;3.15;;;1.23;;
72493;SDS011;60520;49.182;-0.348;2023-07-13T13:27:08;2.15;;;1.05;;
72493;SDS011;60520;49.182;-0.348;2023-07-13T13:29:37;4.03;;;1.60;;
72493;SDS011;60520;49.182;-0.348;2023-07-13T13:32:09;2.85;;;1.17;;
72493;SDS011;60520;49.182;-0.348;2023-07-13T13:34:36;3.67;;;1.20;;
72493;SDS011;60520;49.182;-0.348;2023-07-13T13:37:04;3.05;;;1.35;;
72493;SDS011;60520;49.182;-0.348;2023-07-13T13:39:37;3.22;;;1.20;;
72493;SDS011;60520;49.182;-0.348;2023-07-13T13:42:05;5.18;;;1.33;;
72493;SDS011;60520;49.182;-0.348;2023-07-13T13:44:32;3.22;;;1.40;;
72493;SDS011;60520;49.182;-0.348;2023-07-13T13:47:00;2.30;;;1.33;;
72493;SDS011;60520;49.182;-0.348;2023-07-13T13:49:29;3.17;;;1.20;;
72493;SDS011;60520;49.182;-0.348;2023-07-13T13:51:57;2.45;;;0.93;;
72493;SDS011;60520;49.182;-0.348;2023-07-13T13:54:24;1.92;;;0.98;;
72493;SDS011;60520;49.182;-0.348;2023-07-13T13:56:52;2.08;;;0.95;;
72493;SDS011;60520;49.182;-0.348;2023-07-13T13:59:19;2.42;;;1.30;;
72493;SDS011;60520;49.182;-0.348;2023-07-13T14:01:47;2.58;;;0.90;;
72493;SDS011;60520;49.182;-0.348;2023-07-13T14:04:19;2.20;;;0.82;;
72493;SDS011;60520;49.182;-0.348;2023-07-13T14:06:47;4.57;;;1.23;;
72493;SDS011;60520;49.182;-0.348;2023-07-13T14:09:15;3.35;;;0.90;;
72493;SDS011;60520;49.182;-0.348;2023-07-13T14:11:43;2.00;;;1.10;;
72493;SDS011;60520;49.182;-0.348;2023-07-13T14:14:12;1.77;;;1.00;;
72493;SDS011;60520;49.182;-0.348;2023-07-13T14:16:41;5.70;;;1.30;;
72493;SDS011;60520;49.182;-0.348;2023-07-13T14:19:09;2.58;;;1.27;;
72493;SDS011;60520;49.182;-0.348;2023-07-13T14:21:38;3.25;;;1.25;;
72493;SDS011;60520;49.182;-0.348;2023-07-13T14:24:05;2.60;;;1.10;;
72493;SDS011;60520;49.182;-0.348;2023-07-13T14:26:35;4.43;;;1.20;;
72493;SDS011;60520;49.182;-0.348;2023-07-13T14:29:04;2.45;;;1.00;;
72493;SDS011;60520;49.182;-0.348;2023-07-13T14:31:32;2.85;;;1.10;;
72493;SDS011;60520;49.182;-0.348;2023-07-13T14:33:59;1.88;;;1.02;;
72493;SDS011;60520;49.182;-0.348;2023-07-13T14:36:27;1.17;;;0.90;;
72493;SDS011;60520;49.182;-0.348;2023-07-13T14:38:57;2.10;;;0.88;;
72493;SDS011;60520;49.182;-0.348;2023-07-13T14:41:24;1.17;;;0.80;;
72493;SDS011;60520;49.182;-0.348;2023-07-13T14:43:52;1.40;;;0.73;;